sensor_id;sensor_type;location;lat;lon;timestamp;pressure;altitude;pressure_sealevel;temperature
22322;BMP180;11328;53.928;18.522;2022-10-31T00:01:33;100615.00;;;15.00
22322;BMP180;11328;53.928;18.522;2022-10-31T00:04:00;100597.00;;;15.10
22322;BMP180;11328;53.928;18.522;2022-10-31T00:06:28;100611.00;;;15.20
22322;BMP180;11328;53.928;18.522;2022-10-31T00:09:01;100619.00;;;15.20
22322;BMP180;11328;53.928;18.522;2022-10-31T00:11:29;100618.00;;;15.20
22322;BMP180;11328;53.928;18.522;2022-10-31T00:13:58;100620.00;;;15.20
22322;BMP180;11328;53.928;18.522;2022-10-31T00:16:27;100613.00;;;15.20
22322;BMP180;11328;53.928;18.522;2022-10-31T00:18:59;100622.00;;;15.20
22322;BMP180;11328;53.928;18.522;2022-10-31T00:21:27;100627.00;;;15.20
22322;BMP180;11328;53.928;18.522;2022-10-31T00:23:55;100610.00;;;15.20
22322;BMP180;11328;53.928;18.522;2022-10-31T00:26:21;100631.00;;;15.20
22322;BMP180;11328;53.928;18.522;2022-10-31T00:28:49;100632.00;;;15.20
22322;BMP180;11328;53.928;18.522;2022-10-31T00:31:16;100632.00;;;15.20
22322;BMP180;11328;53.928;18.522;2022-10-31T00:33:43;100630.00;;;15.20
22322;BMP180;11328;53.928;18.522;2022-10-31T00:36:14;100632.00;;;15.20
22322;BMP180;11328;53.928;18.522;2022-10-31T00:38:42;100635.00;;;15.30
22322;BMP180;11328;53.928;18.522;2022-10-31T00:41:11;100634.00;;;15.30
22322;BMP180;11328;53.928;18.522;2022-10-31T00:43:38;100634.00;;;15.30
22322;BMP180;11328;53.928;18.522;2022-10-31T00:46:05;100629.00;;;15.30
22322;BMP180;11328;53.928;18.522;2022-10-31T00:48:32;100632.00;;;15.30
22322;BMP180;11328;53.928;18.522;2022-10-31T00:50:59;100635.00;;;15.30
22322;BMP180;11328;53.928;18.522;2022-10-31T00:53:26;100635.00;;;15.40
22322;BMP180;11328;53.928;18.522;2022-10-31T00:55:53;100636.00;;;15.40
22322;BMP180;11328;53.928;18.522;2022-10-31T00:58:20;100632.00;;;15.40
22322;BMP180;11328;53.928;18.522;2022-10-31T01:00:50;100630.00;;;15.40
22322;BMP180;11328;53.928;18.522;2022-10-31T01:03:29;100637.00;;;15.40
22322;BMP180;11328;53.928;18.522;2022-10-31T01:06:06;100628.00;;;15.30
22322;BMP180;11328;53.928;18.522;2022-10-31T01:08:35;100620.00;;;15.30
22322;BMP180;11328;53.928;18.522;2022-10-31T01:13:39;100631.00;;;15.40
22322;BMP180;11328;53.928;18.522;2022-10-31T01:16:10;100621.00;;;15.50
22322;BMP180;11328;53.928;18.522;2022-10-31T01:18:38;100635.00;;;15.50
22322;BMP180;11328;53.928;18.522;2022-10-31T01:21:12;100634.00;;;15.40
22322;BMP180;11328;53.928;18.522;2022-10-31T01:23:40;100640.00;;;15.40
22322;BMP180;11328;53.928;18.522;2022-10-31T01:26:36;100638.00;;;15.40
22322;BMP180;11328;53.928;18.522;2022-10-31T01:29:07;100643.00;;;15.40
22322;BMP180;11328;53.928;18.522;2022-10-31T01:31:38;100642.00;;;15.30
22322;BMP180;11328;53.928;18.522;2022-10-31T01:34:06;100637.00;;;15.30
22322;BMP180;11328;53.928;18.522;2022-10-31T01:36:37;100645.00;;;15.30
22322;BMP180;11328;53.928;18.522;2022-10-31T01:39:14;100642.00;;;15.10
22322;BMP180;11328;53.928;18.522;2022-10-31T01:41:49;100639.00;;;15.10
22322;BMP180;11328;53.928;18.522;2022-10-31T01:49:34;100637.00;;;15.30
22322;BMP180;11328;53.928;18.522;2022-10-31T01:52:16;100633.00;;;15.30
22322;BMP180;11328;53.928;18.522;2022-10-31T01:54:52;100642.00;;;15.30
22322;BMP180;11328;53.928;18.522;2022-10-31T01:57:21;100617.00;;;15.40
22322;BMP180;11328;53.928;18.522;2022-10-31T01:59:54;100640.00;;;15.40
22322;BMP180;11328;53.928;18.522;2022-10-31T02:02:24;100646.00;;;15.50
22322;BMP180;11328;53.928;18.522;2022-10-31T02:04:53;100650.00;;;15.40
22322;BMP180;11328;53.928;18.522;2022-10-31T02:07:53;100641.00;;;15.50
22322;BMP180;11328;53.928;18.522;2022-10-31T02:10:23;100645.00;;;15.50
22322;BMP180;11328;53.928;18.522;2022-10-31T02:12:53;100649.00;;;15.50
22322;BMP180;11328;53.928;18.522;2022-10-31T02:15:22;100646.00;;;15.50
22322;BMP180;11328;53.928;18.522;2022-10-31T02:17:49;100645.00;;;15.50
22322;BMP180;11328;53.928;18.522;2022-10-31T02:20:20;100653.00;;;15.60
22322;BMP180;11328;53.928;18.522;2022-10-31T02:29:25;100650.00;;;15.70
22322;BMP180;11328;53.928;18.522;2022-10-31T02:44:09;100667.00;;;15.80
22322;BMP180;11328;53.928;18.522;2022-10-31T02:46:52;100661.00;;;15.70
22322;BMP180;11328;53.928;18.522;2022-10-31T02:49:53;100656.00;;;15.70
22322;BMP180;11328;53.928;18.522;2022-10-31T02:52:29;100661.00;;;15.60
22322;BMP180;11328;53.928;18.522;2022-10-31T02:54:57;100662.00;;;15.60
22322;BMP180;11328;53.928;18.522;2022-10-31T02:57:29;100659.00;;;15.70
22322;BMP180;11328;53.928;18.522;2022-10-31T03:00:05;100670.00;;;15.60
22322;BMP180;11328;53.928;18.522;2022-10-31T03:03:05;100655.00;;;15.60
22322;BMP180;11328;53.928;18.522;2022-10-31T03:08:24;100673.00;;;15.50
22322;BMP180;11328;53.928;18.522;2022-10-31T03:11:02;100666.00;;;15.50
22322;BMP180;11328;53.928;18.522;2022-10-31T03:13:52;100666.00;;;15.50
22322;BMP180;11328;53.928;18.522;2022-10-31T03:16:50;100673.00;;;15.50
22322;BMP180;11328;53.928;18.522;2022-10-31T03:19:33;100667.00;;;15.50
22322;BMP180;11328;53.928;18.522;2022-10-31T03:22:19;100670.00;;;15.60
22322;BMP180;11328;53.928;18.522;2022-10-31T03:24:48;100677.00;;;15.60
22322;BMP180;11328;53.928;18.522;2022-10-31T03:27:22;100678.00;;;15.60
22322;BMP180;11328;53.928;18.522;2022-10-31T03:29:55;100682.00;;;15.70
22322;BMP180;11328;53.928;18.522;2022-10-31T03:32:39;100687.00;;;15.70
22322;BMP180;11328;53.928;18.522;2022-10-31T03:35:10;100687.00;;;15.50
22322;BMP180;11328;53.928;18.522;2022-10-31T03:37:40;100682.00;;;15.60
22322;BMP180;11328;53.928;18.522;2022-10-31T03:40:11;100671.00;;;15.60
22322;BMP180;11328;53.928;18.522;2022-10-31T03:42:46;100674.00;;;15.60
22322;BMP180;11328;53.928;18.522;2022-10-31T03:45:25;100672.00;;;15.70
22322;BMP180;11328;53.928;18.522;2022-10-31T03:47:54;100668.00;;;15.70
22322;BMP180;11328;53.928;18.522;2022-10-31T03:50:26;100667.00;;;15.70
22322;BMP180;11328;53.928;18.522;2022-10-31T03:53:08;100670.00;;;15.60
22322;BMP180;11328;53.928;18.522;2022-10-31T03:55:47;100668.00;;;15.50
22322;BMP180;11328;53.928;18.522;2022-10-31T03:58:25;100669.00;;;15.50
22322;BMP180;11328;53.928;18.522;2022-10-31T04:00:56;100671.00;;;15.50
22322;BMP180;11328;53.928;18.522;2022-10-31T04:03:30;100665.00;;;15.40
22322;BMP180;11328;53.928;18.522;2022-10-31T04:06:04;100666.00;;;15.40
22322;BMP180;11328;53.928;18.522;2022-10-31T04:08:39;100664.00;;;15.40
22322;BMP180;11328;53.928;18.522;2022-10-31T04:11:09;100668.00;;;15.40
22322;BMP180;11328;53.928;18.522;2022-10-31T04:13:40;100670.00;;;15.40
22322;BMP180;11328;53.928;18.522;2022-10-31T04:16:10;100670.00;;;15.40
22322;BMP180;11328;53.928;18.522;2022-10-31T04:18:43;100669.00;;;15.40
22322;BMP180;11328;53.928;18.522;2022-10-31T04:21:10;100659.00;;;15.30
22322;BMP180;11328;53.928;18.522;2022-10-31T04:23:37;100660.00;;;15.10
22322;BMP180;11328;53.928;18.522;2022-10-31T04:26:04;100660.00;;;15.10
22322;BMP180;11328;53.928;18.522;2022-10-31T04:28:31;100662.00;;;15.10
22322;BMP180;11328;53.928;18.522;2022-10-31T04:31:00;100662.00;;;15.10
22322;BMP180;11328;53.928;18.522;2022-10-31T04:33:27;100653.00;;;15.10
22322;BMP180;11328;53.928;18.522;2022-10-31T04:35:54;100649.00;;;15.10
22322;BMP180;11328;53.928;18.522;2022-10-31T04:38:21;100655.00;;;15.20
22322;BMP180;11328;53.928;18.522;2022-10-31T04:40:48;100651.00;;;15.20
22322;BMP180;11328;53.928;18.522;2022-10-31T04:43:15;100655.00;;;15.10
22322;BMP180;11328;53.928;18.522;2022-10-31T04:45:42;100661.00;;;15.10
22322;BMP180;11328;53.928;18.522;2022-10-31T04:48:09;100652.00;;;15.10
22322;BMP180;11328;53.928;18.522;2022-10-31T04:50:36;100644.00;;;15.10
22322;BMP180;11328;53.928;18.522;2022-10-31T04:53:03;100643.00;;;15.00
22322;BMP180;11328;53.928;18.522;2022-10-31T04:55:30;100638.00;;;15.10
22322;BMP180;11328;53.928;18.522;2022-10-31T04:57:57;100646.00;;;15.00
22322;BMP180;11328;53.928;18.522;2022-10-31T05:00:25;100649.00;;;15.00
22322;BMP180;11328;53.928;18.522;2022-10-31T05:02:55;100650.00;;;15.10
22322;BMP180;11328;53.928;18.522;2022-10-31T05:05:26;100645.00;;;15.10
22322;BMP180;11328;53.928;18.522;2022-10-31T05:07:54;100647.00;;;15.00
22322;BMP180;11328;53.928;18.522;2022-10-31T05:10:25;100648.00;;;15.00
22322;BMP180;11328;53.928;18.522;2022-10-31T05:12:59;100648.00;;;15.00
22322;BMP180;11328;53.928;18.522;2022-10-31T05:15:28;100650.00;;;15.00
22322;BMP180;11328;53.928;18.522;2022-10-31T05:17:55;100668.00;;;15.10
22322;BMP180;11328;53.928;18.522;2022-10-31T05:20:27;100657.00;;;15.00
22322;BMP180;11328;53.928;18.522;2022-10-31T05:22:57;100660.00;;;15.00
22322;BMP180;11328;53.928;18.522;2022-10-31T05:25:27;100667.00;;;15.00
22322;BMP180;11328;53.928;18.522;2022-10-31T05:27:56;100675.00;;;15.00
22322;BMP180;11328;53.928;18.522;2022-10-31T05:30:30;100672.00;;;15.00
22322;BMP180;11328;53.928;18.522;2022-10-31T05:32:57;100660.00;;;15.00
22322;BMP180;11328;53.928;18.522;2022-10-31T05:35:29;100669.00;;;15.00
22322;BMP180;11328;53.928;18.522;2022-10-31T05:37:57;100664.00;;;14.90
22322;BMP180;11328;53.928;18.522;2022-10-31T05:40:25;100679.00;;;14.90
22322;BMP180;11328;53.928;18.522;2022-10-31T05:42:55;100678.00;;;14.90
22322;BMP180;11328;53.928;18.522;2022-10-31T05:45:22;100681.00;;;14.90
22322;BMP180;11328;53.928;18.522;2022-10-31T05:47:56;100678.00;;;14.90
22322;BMP180;11328;53.928;18.522;2022-10-31T05:50:25;100676.00;;;14.80
22322;BMP180;11328;53.928;18.522;2022-10-31T05:53:11;100676.00;;;14.80
22322;BMP180;11328;53.928;18.522;2022-10-31T05:55:38;100691.00;;;14.80
22322;BMP180;11328;53.928;18.522;2022-10-31T05:58:06;100695.00;;;14.80
22322;BMP180;11328;53.928;18.522;2022-10-31T06:00:33;100694.00;;;15.00
22322;BMP180;11328;53.928;18.522;2022-10-31T06:03:05;100695.00;;;15.00
22322;BMP180;11328;53.928;18.522;2022-10-31T06:05:32;100691.00;;;15.00
22322;BMP180;11328;53.928;18.522;2022-10-31T06:07:59;100686.00;;;14.90
22322;BMP180;11328;53.928;18.522;2022-10-31T06:10:28;100692.00;;;14.90
22322;BMP180;11328;53.928;18.522;2022-10-31T06:12:55;100702.00;;;14.90
22322;BMP180;11328;53.928;18.522;2022-10-31T06:15:22;100703.00;;;14.90
22322;BMP180;11328;53.928;18.522;2022-10-31T06:18:05;100704.00;;;14.80
22322;BMP180;11328;53.928;18.522;2022-10-31T06:20:33;100706.00;;;14.80
22322;BMP180;11328;53.928;18.522;2022-10-31T06:23:00;100716.00;;;14.70
22322;BMP180;11328;53.928;18.522;2022-10-31T06:25:28;100694.00;;;14.70
22322;BMP180;11328;53.928;18.522;2022-10-31T06:27:55;100696.00;;;14.80
22322;BMP180;11328;53.928;18.522;2022-10-31T06:30:24;100694.00;;;14.80
22322;BMP180;11328;53.928;18.522;2022-10-31T06:32:51;100699.00;;;14.70
22322;BMP180;11328;53.928;18.522;2022-10-31T06:35:19;100705.00;;;14.80
22322;BMP180;11328;53.928;18.522;2022-10-31T06:37:53;100705.00;;;14.70
22322;BMP180;11328;53.928;18.522;2022-10-31T06:40:21;100710.00;;;14.70
22322;BMP180;11328;53.928;18.522;2022-10-31T06:42:56;100710.00;;;14.70
22322;BMP180;11328;53.928;18.522;2022-10-31T06:45:23;100708.00;;;14.70
22322;BMP180;11328;53.928;18.522;2022-10-31T06:47:55;100708.00;;;14.70
22322;BMP180;11328;53.928;18.522;2022-10-31T06:50:42;100706.00;;;14.70
22322;BMP180;11328;53.928;18.522;2022-10-31T06:53:09;100698.00;;;14.60
22322;BMP180;11328;53.928;18.522;2022-10-31T06:55:42;100699.00;;;14.60
22322;BMP180;11328;53.928;18.522;2022-10-31T06:58:10;100691.00;;;14.60
22322;BMP180;11328;53.928;18.522;2022-10-31T07:00:37;100715.00;;;14.60
22322;BMP180;11328;53.928;18.522;2022-10-31T07:03:11;100714.00;;;14.60
22322;BMP180;11328;53.928;18.522;2022-10-31T07:05:39;100706.00;;;14.60
22322;BMP180;11328;53.928;18.522;2022-10-31T07:08:10;100711.00;;;14.60
22322;BMP180;11328;53.928;18.522;2022-10-31T07:10:40;100717.00;;;14.70
22322;BMP180;11328;53.928;18.522;2022-10-31T07:13:12;100722.00;;;14.70
22322;BMP180;11328;53.928;18.522;2022-10-31T07:15:42;100728.00;;;14.80
22322;BMP180;11328;53.928;18.522;2022-10-31T07:18:11;100735.00;;;14.90
22322;BMP180;11328;53.928;18.522;2022-10-31T07:20:39;100742.00;;;14.90
22322;BMP180;11328;53.928;18.522;2022-10-31T07:23:06;100742.00;;;14.90
22322;BMP180;11328;53.928;18.522;2022-10-31T07:25:33;100744.00;;;15.00
22322;BMP180;11328;53.928;18.522;2022-10-31T07:28:00;100741.00;;;15.00
22322;BMP180;11328;53.928;18.522;2022-10-31T07:30:28;100734.00;;;15.10
22322;BMP180;11328;53.928;18.522;2022-10-31T07:32:54;100742.00;;;15.10
22322;BMP180;11328;53.928;18.522;2022-10-31T07:35:26;100744.00;;;15.20
22322;BMP180;11328;53.928;18.522;2022-10-31T07:37:54;100747.00;;;15.20
22322;BMP180;11328;53.928;18.522;2022-10-31T07:40:24;100758.00;;;15.20
22322;BMP180;11328;53.928;18.522;2022-10-31T07:42:53;100757.00;;;15.30
22322;BMP180;11328;53.928;18.522;2022-10-31T07:45:21;100752.00;;;15.20
22322;BMP180;11328;53.928;18.522;2022-10-31T07:47:50;100756.00;;;15.30
22322;BMP180;11328;53.928;18.522;2022-10-31T07:50:28;100764.00;;;15.40
22322;BMP180;11328;53.928;18.522;2022-10-31T07:53:04;100751.00;;;15.30
22322;BMP180;11328;53.928;18.522;2022-10-31T07:55:32;100745.00;;;15.30
22322;BMP180;11328;53.928;18.522;2022-10-31T07:58:21;100752.00;;;15.40
22322;BMP180;11328;53.928;18.522;2022-10-31T08:00:48;100752.00;;;15.40
22322;BMP180;11328;53.928;18.522;2022-10-31T08:03:18;100750.00;;;15.40
22322;BMP180;11328;53.928;18.522;2022-10-31T08:05:45;100758.00;;;15.40
22322;BMP180;11328;53.928;18.522;2022-10-31T08:08:14;100760.00;;;15.40
22322;BMP180;11328;53.928;18.522;2022-10-31T08:10:41;100760.00;;;15.40
22322;BMP180;11328;53.928;18.522;2022-10-31T08:13:12;100764.00;;;15.50
22322;BMP180;11328;53.928;18.522;2022-10-31T08:15:40;100761.00;;;15.60
22322;BMP180;11328;53.928;18.522;2022-10-31T08:18:15;100761.00;;;15.60
22322;BMP180;11328;53.928;18.522;2022-10-31T08:20:43;100757.00;;;15.70
22322;BMP180;11328;53.928;18.522;2022-10-31T08:23:12;100767.00;;;15.70
22322;BMP180;11328;53.928;18.522;2022-10-31T08:25:40;100746.00;;;15.70
22322;BMP180;11328;53.928;18.522;2022-10-31T08:28:10;100749.00;;;15.70
22322;BMP180;11328;53.928;18.522;2022-10-31T08:30:40;100760.00;;;15.70
22322;BMP180;11328;53.928;18.522;2022-10-31T08:33:14;100756.00;;;15.70
22322;BMP180;11328;53.928;18.522;2022-10-31T08:35:41;100758.00;;;15.70
22322;BMP180;11328;53.928;18.522;2022-10-31T08:38:11;100751.00;;;15.80
22322;BMP180;11328;53.928;18.522;2022-10-31T08:40:39;100760.00;;;15.80
22322;BMP180;11328;53.928;18.522;2022-10-31T08:43:13;100755.00;;;15.90
22322;BMP180;11328;53.928;18.522;2022-10-31T08:45:41;100761.00;;;15.90
22322;BMP180;11328;53.928;18.522;2022-10-31T08:48:14;100764.00;;;15.90
22322;BMP180;11328;53.928;18.522;2022-10-31T08:50:43;100766.00;;;16.00
22322;BMP180;11328;53.928;18.522;2022-10-31T08:53:18;100772.00;;;15.90
22322;BMP180;11328;53.928;18.522;2022-10-31T08:55:46;100770.00;;;16.00
22322;BMP180;11328;53.928;18.522;2022-10-31T08:58:17;100765.00;;;16.00
22322;BMP180;11328;53.928;18.522;2022-10-31T09:00:46;100771.00;;;16.00
22322;BMP180;11328;53.928;18.522;2022-10-31T09:03:23;100771.00;;;16.00
22322;BMP180;11328;53.928;18.522;2022-10-31T09:05:56;100775.00;;;16.00
22322;BMP180;11328;53.928;18.522;2022-10-31T09:08:23;100769.00;;;16.00
22322;BMP180;11328;53.928;18.522;2022-10-31T09:10:51;100765.00;;;16.00
22322;BMP180;11328;53.928;18.522;2022-10-31T09:13:24;100779.00;;;16.10
22322;BMP180;11328;53.928;18.522;2022-10-31T09:15:56;100774.00;;;16.00
22322;BMP180;11328;53.928;18.522;2022-10-31T09:18:25;100771.00;;;16.10
22322;BMP180;11328;53.928;18.522;2022-10-31T09:20:58;100783.00;;;16.10
22322;BMP180;11328;53.928;18.522;2022-10-31T09:23:25;100777.00;;;16.00
22322;BMP180;11328;53.928;18.522;2022-10-31T09:25:53;100764.00;;;16.00
22322;BMP180;11328;53.928;18.522;2022-10-31T09:28:23;100762.00;;;16.10
22322;BMP180;11328;53.928;18.522;2022-10-31T09:30:53;100771.00;;;16.20
22322;BMP180;11328;53.928;18.522;2022-10-31T09:33:21;100766.00;;;16.10
22322;BMP180;11328;53.928;18.522;2022-10-31T09:35:48;100773.00;;;16.10
22322;BMP180;11328;53.928;18.522;2022-10-31T09:38:20;100772.00;;;16.10
22322;BMP180;11328;53.928;18.522;2022-10-31T09:47:01;100796.00;;;16.20
22322;BMP180;11328;53.928;18.522;2022-10-31T09:52:28;100787.00;;;16.10
22322;BMP180;11328;53.928;18.522;2022-10-31T09:55:20;100785.00;;;16.00
22322;BMP180;11328;53.928;18.522;2022-10-31T09:57:50;100783.00;;;16.00
22322;BMP180;11328;53.928;18.522;2022-10-31T10:00:21;100780.00;;;16.00
22322;BMP180;11328;53.928;18.522;2022-10-31T10:03:02;100778.00;;;16.00
22322;BMP180;11328;53.928;18.522;2022-10-31T10:08:23;100787.00;;;16.20
22322;BMP180;11328;53.928;18.522;2022-10-31T10:11:41;100782.00;;;16.20
22322;BMP180;11328;53.928;18.522;2022-10-31T10:26:42;100776.00;;;16.10
22322;BMP180;11328;53.928;18.522;2022-10-31T10:29:37;100769.00;;;16.10
22322;BMP180;11328;53.928;18.522;2022-10-31T10:32:24;100767.00;;;16.20
22322;BMP180;11328;53.928;18.522;2022-10-31T10:37:41;100761.00;;;16.20
22322;BMP180;11328;53.928;18.522;2022-10-31T10:40:18;100768.00;;;16.30
22322;BMP180;11328;53.928;18.522;2022-10-31T10:51:39;100756.00;;;16.00
22322;BMP180;11328;53.928;18.522;2022-10-31T11:00:19;100763.00;;;16.00
22322;BMP180;11328;53.928;18.522;2022-10-31T11:02:46;100769.00;;;16.20
22322;BMP180;11328;53.928;18.522;2022-10-31T11:05:33;100764.00;;;16.00
22322;BMP180;11328;53.928;18.522;2022-10-31T11:08:04;100765.00;;;15.90
22322;BMP180;11328;53.928;18.522;2022-10-31T11:10:31;100768.00;;;15.90
22322;BMP180;11328;53.928;18.522;2022-10-31T11:16:08;100771.00;;;15.60
22322;BMP180;11328;53.928;18.522;2022-10-31T11:18:46;100770.00;;;15.70
22322;BMP180;11328;53.928;18.522;2022-10-31T11:21:25;100773.00;;;15.60
22322;BMP180;11328;53.928;18.522;2022-10-31T11:24:14;100759.00;;;15.50
22322;BMP180;11328;53.928;18.522;2022-10-31T11:26:46;100769.00;;;15.20
22322;BMP180;11328;53.928;18.522;2022-10-31T11:29:25;100768.00;;;15.20
22322;BMP180;11328;53.928;18.522;2022-10-31T11:31:56;100759.00;;;15.20
22322;BMP180;11328;53.928;18.522;2022-10-31T11:34:42;100759.00;;;15.40
22322;BMP180;11328;53.928;18.522;2022-10-31T11:37:24;100774.00;;;15.50
22322;BMP180;11328;53.928;18.522;2022-10-31T11:40:02;100769.00;;;15.40
22322;BMP180;11328;53.928;18.522;2022-10-31T11:42:39;100771.00;;;15.40
22322;BMP180;11328;53.928;18.522;2022-10-31T11:45:17;100775.00;;;15.40
22322;BMP180;11328;53.928;18.522;2022-10-31T11:47:50;100770.00;;;15.30
22322;BMP180;11328;53.928;18.522;2022-10-31T11:50:35;100752.00;;;15.10
22322;BMP180;11328;53.928;18.522;2022-10-31T11:53:12;100760.00;;;14.90
22322;BMP180;11328;53.928;18.522;2022-10-31T11:55:41;100762.00;;;15.00
22322;BMP180;11328;53.928;18.522;2022-10-31T11:58:34;100762.00;;;14.90
22322;BMP180;11328;53.928;18.522;2022-10-31T12:01:01;100761.00;;;15.00
22322;BMP180;11328;53.928;18.522;2022-10-31T12:03:59;100765.00;;;15.00
22322;BMP180;11328;53.928;18.522;2022-10-31T12:06:38;100765.00;;;14.90
22322;BMP180;11328;53.928;18.522;2022-10-31T12:09:28;100764.00;;;15.00
22322;BMP180;11328;53.928;18.522;2022-10-31T12:33:12;100758.00;;;15.40
22322;BMP180;11328;53.928;18.522;2022-10-31T13:01:22;100752.00;;;16.50
22322;BMP180;11328;53.928;18.522;2022-10-31T13:04:25;100696.00;;;16.50
22322;BMP180;11328;53.928;18.522;2022-10-31T13:07:13;100750.00;;;16.40
22322;BMP180;11328;53.928;18.522;2022-10-31T13:09:58;100741.00;;;16.20
22322;BMP180;11328;53.928;18.522;2022-10-31T13:12:31;100743.00;;;16.00
22322;BMP180;11328;53.928;18.522;2022-10-31T13:15:22;100741.00;;;16.10
22322;BMP180;11328;53.928;18.522;2022-10-31T13:18:21;100672.00;;;16.10
22322;BMP180;11328;53.928;18.522;2022-10-31T13:20:51;100742.00;;;15.90
22322;BMP180;11328;53.928;18.522;2022-10-31T13:23:34;100749.00;;;15.90
22322;BMP180;11328;53.928;18.522;2022-10-31T13:26:48;100747.00;;;16.00
22322;BMP180;11328;53.928;18.522;2022-10-31T13:30:21;100739.00;;;15.90
22322;BMP180;11328;53.928;18.522;2022-10-31T13:44:05;100731.00;;;15.60
22322;BMP180;11328;53.928;18.522;2022-10-31T13:46:38;100739.00;;;15.70
22322;BMP180;11328;53.928;18.522;2022-10-31T13:54:47;100737.00;;;15.80
22322;BMP180;11328;53.928;18.522;2022-10-31T13:57:41;100743.00;;;15.90
22322;BMP180;11328;53.928;18.522;2022-10-31T14:02:52;100729.00;;;15.90
22322;BMP180;11328;53.928;18.522;2022-10-31T14:05:32;100738.00;;;16.00
22322;BMP180;11328;53.928;18.522;2022-10-31T14:08:03;100745.00;;;16.10
22322;BMP180;11328;53.928;18.522;2022-10-31T14:10:38;100744.00;;;16.00
22322;BMP180;11328;53.928;18.522;2022-10-31T14:13:32;100745.00;;;16.10
22322;BMP180;11328;53.928;18.522;2022-10-31T14:16:05;100739.00;;;16.30
22322;BMP180;11328;53.928;18.522;2022-10-31T14:18:38;100740.00;;;16.20
22322;BMP180;11328;53.928;18.522;2022-10-31T14:21:30;100740.00;;;16.10
22322;BMP180;11328;53.928;18.522;2022-10-31T14:23:58;100734.00;;;16.10
22322;BMP180;11328;53.928;18.522;2022-10-31T14:38:13;100744.00;;;16.10
22322;BMP180;11328;53.928;18.522;2022-10-31T14:47:06;100731.00;;;16.30
22322;BMP180;11328;53.928;18.522;2022-10-31T14:50:04;100737.00;;;16.30
22322;BMP180;11328;53.928;18.522;2022-10-31T14:52:37;100739.00;;;16.30
22322;BMP180;11328;53.928;18.522;2022-10-31T14:55:11;100726.00;;;16.20
22322;BMP180;11328;53.928;18.522;2022-10-31T14:57:55;100730.00;;;16.00
22322;BMP180;11328;53.928;18.522;2022-10-31T15:00:24;100737.00;;;16.00
22322;BMP180;11328;53.928;18.522;2022-10-31T15:03:14;100731.00;;;15.90
22322;BMP180;11328;53.928;18.522;2022-10-31T15:05:55;100732.00;;;15.80
22322;BMP180;11328;53.928;18.522;2022-10-31T15:08:37;100739.00;;;15.90
22322;BMP180;11328;53.928;18.522;2022-10-31T15:13:50;100739.00;;;16.10
22322;BMP180;11328;53.928;18.522;2022-10-31T15:16:41;100742.00;;;16.20
22322;BMP180;11328;53.928;18.522;2022-10-31T15:19:20;100743.00;;;16.20
22322;BMP180;11328;53.928;18.522;2022-10-31T15:21:52;100753.00;;;16.30
22322;BMP180;11328;53.928;18.522;2022-10-31T15:24:20;100743.00;;;16.30
22322;BMP180;11328;53.928;18.522;2022-10-31T15:26:52;100758.00;;;16.30
22322;BMP180;11328;53.928;18.522;2022-10-31T15:29:24;100749.00;;;16.00
22322;BMP180;11328;53.928;18.522;2022-10-31T15:31:59;100730.00;;;16.10
22322;BMP180;11328;53.928;18.522;2022-10-31T15:34:42;100755.00;;;16.00
22322;BMP180;11328;53.928;18.522;2022-10-31T15:37:16;100746.00;;;16.20
22322;BMP180;11328;53.928;18.522;2022-10-31T15:39:45;100758.00;;;16.10
22322;BMP180;11328;53.928;18.522;2022-10-31T15:47:45;100759.00;;;16.00
22322;BMP180;11328;53.928;18.522;2022-10-31T15:50:36;100765.00;;;16.00
22322;BMP180;11328;53.928;18.522;2022-10-31T15:56:20;100760.00;;;15.80
22322;BMP180;11328;53.928;18.522;2022-10-31T15:58:52;100765.00;;;15.80
22322;BMP180;11328;53.928;18.522;2022-10-31T16:01:31;100762.00;;;15.90
22322;BMP180;11328;53.928;18.522;2022-10-31T16:04:05;100764.00;;;16.00
22322;BMP180;11328;53.928;18.522;2022-10-31T16:06:34;100769.00;;;16.00
22322;BMP180;11328;53.928;18.522;2022-10-31T16:09:20;100770.00;;;16.10
22322;BMP180;11328;53.928;18.522;2022-10-31T16:11:48;100768.00;;;16.10
22322;BMP180;11328;53.928;18.522;2022-10-31T16:14:22;100765.00;;;16.10
22322;BMP180;11328;53.928;18.522;2022-10-31T16:16:55;100766.00;;;16.00
22322;BMP180;11328;53.928;18.522;2022-10-31T16:19:35;100767.00;;;16.10
22322;BMP180;11328;53.928;18.522;2022-10-31T16:22:11;100767.00;;;16.20
22322;BMP180;11328;53.928;18.522;2022-10-31T16:27:35;100765.00;;;16.50
22322;BMP180;11328;53.928;18.522;2022-10-31T16:33:35;100776.00;;;16.70
22322;BMP180;11328;53.928;18.522;2022-10-31T16:36:31;100772.00;;;16.60
22322;BMP180;11328;53.928;18.522;2022-10-31T16:39:02;100772.00;;;16.60
22322;BMP180;11328;53.928;18.522;2022-10-31T16:41:32;100764.00;;;16.60
22322;BMP180;11328;53.928;18.522;2022-10-31T16:44:04;100761.00;;;16.70
22322;BMP180;11328;53.928;18.522;2022-10-31T16:46:32;100763.00;;;16.80
22322;BMP180;11328;53.928;18.522;2022-10-31T16:48:59;100767.00;;;17.00
22322;BMP180;11328;53.928;18.522;2022-10-31T16:51:26;100764.00;;;17.10
22322;BMP180;11328;53.928;18.522;2022-10-31T16:53:53;100769.00;;;17.30
22322;BMP180;11328;53.928;18.522;2022-10-31T16:56:34;100766.00;;;17.40
22322;BMP180;11328;53.928;18.522;2022-10-31T16:59:06;100771.00;;;17.50
22322;BMP180;11328;53.928;18.522;2022-10-31T17:01:47;100766.00;;;17.70
22322;BMP180;11328;53.928;18.522;2022-10-31T17:04:15;100773.00;;;17.70
22322;BMP180;11328;53.928;18.522;2022-10-31T17:06:42;100769.00;;;17.70
22322;BMP180;11328;53.928;18.522;2022-10-31T17:09:09;100772.00;;;17.70
22322;BMP180;11328;53.928;18.522;2022-10-31T17:11:45;100772.00;;;17.70
22322;BMP180;11328;53.928;18.522;2022-10-31T17:14:16;100773.00;;;17.70
22322;BMP180;11328;53.928;18.522;2022-10-31T17:16:44;100769.00;;;17.80